createdAt,value
2019-01-05T00:00:48.004Z,98.38
2019-01-05T00:01:48.574Z,98.95
2019-01-05T00:02:49.193Z,98.95
2019-01-05T00:03:49.761Z,97.23
2019-01-05T00:04:50.328Z,98.43
2019-01-05T00:05:50.894Z,98.47
2019-01-05T00:06:51.463Z,98.52
2019-01-05T00:07:52.030Z,97.56
2019-01-05T00:08:52.647Z,98.52
2019-01-05T00:09:53.268Z,98.24
2019-01-05T00:10:53.837Z,96.61
2019-01-05T00:11:54.405Z,94.98
2019-01-05T00:12:54.973Z,94.89
2019-01-05T00:13:55.538Z,94.40
2019-01-05T00:14:56.158Z,94.89
2019-01-05T00:15:56.727Z,93.93
2019-01-05T00:16:57.293Z,94.50
2019-01-05T00:17:57.864Z,94.21
2019-01-05T00:18:58.434Z,94.31
2019-01-05T00:19:59.049Z,96.51
2019-01-05T00:20:59.616Z,97.85
2019-01-05T00:22:00.185Z,97.38
2019-01-05T00:23:00.753Z,96.32
2019-01-05T00:24:01.322Z,96.61
2019-01-05T00:25:01.932Z,96.32
2019-01-05T00:26:02.499Z,95.75
2019-01-05T00:27:03.068Z,96.61
2019-01-05T00:28:03.637Z,96.51
2019-01-05T00:29:04.202Z,96.03
2019-01-05T00:30:04.770Z,96.99
2019-01-05T00:31:05.388Z,96.89
2019-01-05T00:32:06.058Z,96.61
2019-01-05T00:33:06.827Z,97.95
2019-01-05T00:34:07.395Z,96.80
2019-01-05T00:35:07.965Z,96.47
2019-01-05T00:36:08.534Z,97.66
2019-01-05T00:37:09.105Z,97.90
2019-01-05T00:38:09.671Z,98.43
2019-01-05T00:39:10.240Z,99.33
2019-01-05T00:40:10.806Z,99.81
2019-01-05T00:41:11.376Z,99.81
2019-01-05T00:42:11.945Z,98.47
2019-01-05T00:43:12.513Z,97.33
2019-01-05T00:44:13.082Z,98.86
2019-01-05T00:45:13.651Z,99.43
2019-01-05T00:46:14.218Z,98.28
2019-01-05T00:47:14.839Z,97.90
2019-01-05T00:48:15.406Z,96.56
2019-01-05T00:49:15.974Z,98.09
2019-01-05T00:50:16.591Z,97.23
2019-01-05T00:51:17.158Z,98.28
2019-01-05T00:52:17.727Z,98.09
2019-01-05T00:53:18.296Z,97.42
2019-01-05T00:54:18.862Z,98.43
2019-01-05T00:55:19.480Z,98.86
2019-01-05T00:56:20.047Z,97.42
2019-01-05T00:57:20.615Z,98.24
2019-01-05T00:58:21.188Z,98.24
2019-01-05T00:59:21.793Z,99.00
2019-01-05T01:00:22.364Z,99.99
2019-01-05T01:01:22.929Z,98.33
2019-01-05T01:02:23.497Z,97.56
2019-01-05T01:03:24.064Z,98.24
2019-01-05T01:04:24.634Z,98.24
2019-01-05T01:05:25.203Z,98.71
2019-01-05T01:06:25.769Z,97.85
2019-01-05T01:07:26.339Z,99.10
2019-01-05T01:08:26.910Z,99.48
2019-01-05T01:09:27.473Z,99.29
2019-01-05T01:10:28.048Z,98.14
2019-01-05T01:11:28.611Z,97.66
2019-01-05T01:12:29.179Z,97.85
2019-01-05T01:13:29.748Z,99.10
2019-01-05T01:14:30.317Z,98.04
2019-01-05T01:15:30.885Z,98.24
2019-01-05T01:16:31.497Z,97.56
2019-01-05T01:17:32.065Z,99.10
2019-01-05T01:18:32.685Z,99.48
2019-01-05T01:19:33.251Z,99.19
2019-01-05T01:20:33.815Z,98.81
2019-01-05T01:21:34.385Z,99.29
2019-01-05T01:22:35.004Z,99.10
2019-01-05T01:23:35.567Z,99.48
2019-01-05T01:24:36.136Z,98.75
2019-01-05T01:25:36.704Z,97.56
2019-01-05T01:26:37.320Z,98.71
2019-01-05T01:27:37.887Z,97.71
2019-01-05T01:28:38.454Z,98.18
2019-01-05T01:29:39.020Z,97.52
2019-01-05T01:30:39.589Z,98.85
2019-01-05T01:31:40.157Z,99.24
2019-01-05T01:32:40.725Z,98.85
2019-01-05T01:33:41.292Z,98.09
2019-01-05T01:34:41.862Z,98.47
2019-01-05T01:35:42.425Z,99.52
2019-01-05T01:36:42.996Z,98.95
2019-01-05T01:37:43.563Z,98.75
2019-01-05T01:38:44.182Z,99.52
2019-01-05T01:39:44.750Z,98.95
2019-01-05T01:40:45.314Z,98.75
2019-01-05T01:41:45.883Z,98.85
2019-01-05T01:42:46.499Z,98.28
2019-01-05T01:43:47.069Z,97.80
2019-01-05T01:44:47.638Z,97.42
2019-01-05T01:45:48.204Z,98.09
2019-01-05T01:46:48.771Z,98.47
2019-01-05T01:47:49.341Z,99.04
2019-01-05T01:48:49.907Z,98.95
2019-01-05T01:49:50.475Z,98.66
2019-01-05T01:50:51.043Z,99.99
2019-01-05T01:51:51.611Z,98.95
2019-01-05T01:52:52.176Z,99.04
2019-01-05T01:53:52.745Z,99.14
2019-01-05T01:54:53.319Z,98.47
2019-01-05T01:55:54.873Z,98.85
2019-01-05T01:56:55.440Z,98.28
2019-01-05T01:57:56.057Z,97.80
2019-01-05T01:58:56.624Z,99.04
2019-01-05T01:59:57.193Z,99.04
2019-01-05T02:00:57.759Z,98.18
2019-01-05T02:01:58.327Z,97.94
2019-01-05T02:02:58.896Z,98.23
2019-01-05T02:03:59.463Z,99.09
2019-01-05T02:05:00.030Z,98.38
2019-01-05T02:06:00.597Z,97.85
2019-01-05T02:07:01.182Z,97.42
2019-01-05T02:08:01.733Z,98.28
2019-01-05T02:09:02.300Z,98.13
2019-01-05T02:10:02.866Z,97.71
2019-01-05T02:11:03.434Z,98.18
2019-01-05T02:12:04.001Z,97.33
2019-01-05T02:13:04.568Z,98.04
2019-01-05T02:14:05.187Z,98.90
2019-01-05T02:15:05.801Z,98.80
2019-01-05T02:16:06.417Z,98.04
2019-01-05T02:17:06.986Z,98.33
2019-01-05T02:18:07.553Z,98.90
2019-01-05T02:19:08.120Z,98.23
2019-01-05T02:20:08.689Z,98.13
2019-01-05T02:21:09.256Z,98.13
2019-01-05T02:22:09.822Z,98.23
2019-01-05T02:23:10.389Z,98.13
2019-01-05T02:24:10.958Z,97.66
2019-01-05T02:25:11.523Z,96.22
2019-01-05T02:26:12.091Z,96.51
2019-01-05T02:27:12.657Z,96.61
2019-01-05T02:28:13.226Z,96.61
2019-01-05T02:29:13.791Z,97.94
2019-01-05T02:30:14.362Z,97.66
2019-01-05T02:31:14.977Z,97.47
2019-01-05T02:32:15.543Z,97.08
2019-01-05T02:33:16.160Z,96.61
2019-01-05T02:34:16.742Z,96.32
2019-01-05T02:35:17.332Z,97.85
2019-01-05T02:36:18.024Z,97.56
2019-01-05T02:37:18.592Z,97.66
2019-01-05T02:38:19.159Z,97.28
2019-01-05T02:39:19.729Z,97.08
2019-01-05T02:40:20.297Z,96.22
2019-01-05T02:41:20.861Z,97.18
2019-01-05T02:42:21.427Z,97.66
2019-01-05T02:43:21.996Z,97.32
2019-01-05T02:44:22.560Z,97.66
2019-01-05T02:45:23.143Z,97.75
2019-01-05T02:46:23.695Z,96.42
2019-01-05T02:47:24.262Z,97.47
2019-01-05T02:48:24.830Z,97.66
2019-01-05T02:49:25.431Z,97.37
2019-01-05T02:50:25.966Z,97.18
2019-01-05T02:51:26.581Z,96.03
2019-01-05T02:52:27.147Z,97.28
2019-01-05T02:53:27.714Z,97.28
2019-01-05T02:54:28.283Z,96.37
2019-01-05T02:55:28.849Z,97.71
2019-01-05T02:56:29.416Z,97.13
2019-01-05T02:57:29.982Z,97.13
2019-01-05T02:58:30.547Z,97.61
2019-01-05T02:59:31.114Z,97.80
2019-01-05T03:00:31.682Z,98.08
2019-01-05T03:01:32.247Z,96.94
2019-01-05T03:02:32.814Z,97.13
2019-01-05T03:03:33.385Z,97.23
2019-01-05T03:04:33.993Z,98.28
2019-01-05T03:05:34.558Z,98.18
2019-01-05T03:06:35.123Z,97.32
2019-01-05T03:07:35.740Z,97.32
2019-01-05T03:08:36.355Z,97.61
2019-01-05T03:09:36.925Z,97.42
2019-01-05T03:10:37.491Z,98.18
2019-01-05T03:11:38.055Z,98.18
2019-01-05T03:12:38.623Z,97.52
2019-01-05T03:13:39.192Z,96.94
2019-01-05T03:14:39.757Z,96.46
2019-01-05T03:15:40.374Z,96.46
2019-01-05T03:16:40.941Z,96.66
2019-01-05T03:17:41.509Z,96.94
2019-01-05T03:18:42.080Z,97.61
2019-01-05T03:19:42.642Z,98.28
2019-01-05T03:20:43.210Z,98.57
2019-01-05T03:21:43.775Z,98.37
2019-01-05T03:22:44.340Z,97.89
2019-01-05T03:23:44.957Z,99.43
2019-01-05T03:24:45.522Z,99.33
2019-01-05T03:25:46.097Z,98.75
2019-01-05T03:26:46.658Z,98.18
2019-01-05T03:27:47.224Z,98.37
2019-01-05T03:28:47.790Z,98.08
2019-01-05T03:29:48.371Z,98.08
2019-01-05T03:30:48.926Z,98.28
2019-01-05T03:31:49.490Z,98.94
2019-01-05T03:32:50.058Z,97.99
2019-01-05T03:33:50.622Z,98.18
2019-01-05T03:34:51.189Z,98.18
2019-01-05T03:35:51.757Z,98.08
2019-01-05T03:36:52.322Z,98.37
2019-01-05T03:37:52.940Z,98.18
2019-01-05T03:38:53.506Z,98.75
2019-01-05T03:39:54.073Z,98.94
2019-01-05T03:40:54.638Z,99.33
2019-01-05T03:41:55.263Z,99.04
2019-01-05T03:42:55.824Z,98.75
2019-01-05T03:43:56.388Z,99.14
2019-01-05T03:44:56.955Z,98.75
2019-01-05T03:45:57.571Z,98.75
2019-01-05T03:46:58.139Z,98.85
2019-01-05T03:47:58.705Z,98.37
2019-01-05T03:48:59.272Z,98.75
2019-01-05T03:49:59.840Z,98.47
2019-01-05T03:51:00.407Z,98.57
2019-01-05T03:52:00.976Z,98.28
2019-01-05T03:53:01.541Z,97.71
2019-01-05T03:54:02.155Z,97.89
2019-01-05T03:55:02.721Z,98.08
2019-01-05T03:56:03.289Z,97.89
2019-01-05T03:57:03.856Z,97.13
2019-01-05T03:58:04.473Z,97.52
2019-01-05T03:59:05.039Z,98.37
2019-01-05T04:00:05.604Z,96.66
2019-01-05T04:01:06.225Z,97.71
2019-01-05T04:02:06.832Z,97.32
2019-01-05T04:03:07.396Z,97.23
2019-01-05T04:04:07.964Z,97.80
2019-01-05T04:05:08.530Z,97.80
2019-01-05T04:06:09.096Z,98.37
2019-01-05T04:07:09.724Z,97.89
2019-01-05T04:08:10.328Z,98.94
2019-01-05T04:09:10.897Z,98.94
2019-01-05T04:10:11.462Z,98.57
2019-01-05T04:11:12.077Z,99.14
2019-01-05T04:12:12.645Z,98.85
2019-01-05T04:13:13.213Z,98.94
2019-01-05T04:14:13.786Z,98.94
2019-01-05T04:15:14.350Z,99.62
2019-01-05T04:16:14.916Z,99.90
2019-01-05T04:17:15.482Z,98.75
2019-01-05T04:18:16.049Z,99.43
2019-01-05T04:19:16.616Z,99.99
2019-01-05T04:20:17.235Z,99.04
2019-01-05T04:21:17.803Z,99.04
2019-01-05T04:22:18.367Z,99.80
2019-01-05T04:23:18.935Z,99.99
2019-01-05T04:24:19.502Z,99.04
2019-01-05T04:25:20.070Z,99.52
2019-01-05T04:26:20.637Z,99.23
2019-01-05T04:27:21.245Z,99.14
2019-01-05T04:28:21.816Z,98.08
2019-01-05T04:29:22.428Z,99.33
2019-01-05T04:30:22.994Z,99.14
2019-01-05T04:31:23.612Z,98.28
2019-01-05T04:32:24.180Z,98.37
2019-01-05T04:33:24.746Z,97.80
2019-01-05T04:34:25.313Z,98.90
2019-01-05T04:35:25.880Z,98.28
2019-01-05T04:36:26.447Z,98.47
2019-01-05T04:37:27.013Z,98.57
2019-01-05T04:38:27.579Z,99.62
2019-01-05T04:39:28.145Z,98.85
2019-01-05T04:40:28.712Z,99.23
2019-01-05T04:41:29.278Z,98.13
2019-01-05T04:42:29.845Z,98.80
2019-01-05T04:43:30.412Z,98.75
2019-01-05T04:44:30.979Z,97.13
2019-01-05T04:45:31.544Z,97.75
2019-01-05T04:46:32.112Z,98.90
2019-01-05T04:47:32.730Z,99.08
2019-01-05T04:48:33.366Z,99.08
2019-01-05T04:49:33.915Z,98.13
2019-01-05T04:50:34.491Z,98.03
2019-01-05T04:51:35.047Z,98.99
2019-01-05T04:52:35.613Z,98.61
2019-01-05T04:53:36.197Z,98.23
2019-01-05T04:54:36.745Z,99.37
2019-01-05T04:55:37.361Z,99.62
2019-01-05T04:56:37.930Z,99.85
2019-01-05T04:57:38.494Z,98.71
2019-01-05T04:58:39.060Z,99.08
2019-01-05T04:59:39.626Z,99.43
2019-01-05T05:00:40.192Z,99.71
2019-01-05T05:01:40.758Z,99.85
2019-01-05T05:02:41.325Z,99.37
2019-01-05T05:03:41.891Z,99.71
2019-01-05T05:04:42.507Z,99.62
2019-01-05T05:05:43.075Z,99.47
2019-01-05T05:06:43.642Z,99.14
2019-01-05T05:07:44.211Z,99.99
2019-01-05T05:08:44.774Z,99.99
2019-01-05T05:09:45.341Z,98.18
2019-01-05T05:10:45.910Z,98.71
2019-01-05T05:11:46.475Z,98.13
2019-01-05T05:12:47.093Z,99.18
2019-01-05T05:13:47.660Z,98.99
2019-01-05T05:14:48.225Z,98.75
2019-01-05T05:15:48.792Z,98.71
2019-01-05T05:16:49.364Z,98.08
2019-01-05T05:17:49.925Z,98.03
2019-01-05T05:18:50.492Z,98.71
2019-01-05T05:19:51.059Z,99.76
2019-01-05T05:20:51.631Z,99.85
2019-01-05T05:21:52.235Z,99.66
2019-01-05T05:22:52.843Z,99.76
2019-01-05T05:23:53.458Z,99.99
2019-01-05T05:24:54.074Z,99.90
2019-01-05T05:25:54.641Z,99.99
2019-01-05T05:26:55.209Z,99.04
2019-01-05T05:27:55.773Z,98.57
2019-01-05T05:28:56.341Z,99.80
2019-01-05T05:29:56.957Z,99.99
2019-01-05T05:30:57.526Z,99.99
2019-01-05T05:31:58.092Z,99.99
2019-01-05T05:32:58.656Z,99.99
2019-01-05T05:33:59.223Z,99.99
2019-01-05T05:34:59.790Z,99.99
2019-01-05T05:36:00.355Z,99.99
2019-01-05T05:37:00.928Z,99.99
2019-01-05T05:38:01.495Z,99.90
2019-01-05T05:39:02.061Z,99.99
2019-01-05T05:40:02.629Z,99.99
2019-01-05T05:41:03.345Z,98.85
2019-01-05T05:42:04.479Z,97.42
2019-01-05T05:43:05.023Z,98.37
2019-01-05T05:44:05.640Z,98.47
2019-01-05T05:45:06.206Z,97.42
2019-01-05T05:46:06.770Z,98.28
2019-01-05T05:47:07.338Z,99.18
2019-01-05T05:48:07.906Z,98.03
2019-01-05T05:49:08.471Z,97.27
2019-01-05T05:50:09.037Z,97.75
2019-01-05T05:51:09.606Z,97.94
2019-01-05T05:52:10.214Z,98.52
2019-01-05T05:53:10.783Z,97.85
2019-01-05T05:54:11.398Z,97.18
2019-01-05T05:55:11.962Z,98.13
2019-01-05T05:56:12.529Z,97.94
2019-01-05T05:57:13.094Z,97.18
2019-01-05T05:58:13.666Z,97.85
2019-01-05T05:59:14.273Z,97.08
2019-01-05T06:00:14.838Z,97.56
2019-01-05T06:01:15.402Z,97.56
2019-01-05T06:02:16.019Z,99.18
2019-01-05T06:03:16.586Z,98.90
2019-01-05T06:04:17.202Z,98.80
2019-01-05T06:05:17.766Z,98.03
2019-01-05T06:06:18.334Z,97.94
2019-01-05T06:07:18.900Z,98.13
2019-01-05T06:08:19.464Z,98.03
2019-01-05T06:09:20.030Z,98.99
2019-01-05T06:10:20.597Z,98.13
2019-01-05T06:11:21.163Z,96.13
2019-01-05T06:12:21.728Z,96.32
2019-01-05T06:13:22.300Z,98.32
2019-01-05T06:14:22.862Z,97.08
2019-01-05T06:15:23.428Z,97.47
2019-01-05T06:16:23.996Z,97.66
2019-01-05T06:17:24.561Z,97.85
2019-01-05T06:18:25.126Z,97.94
2019-01-05T06:19:25.692Z,99.08
2019-01-05T06:20:26.412Z,98.61
2019-01-05T06:21:27.022Z,97.47
2019-01-05T06:22:27.588Z,97.27
2019-01-05T06:23:28.152Z,96.51
2019-01-05T06:24:28.719Z,97.37
2019-01-05T06:25:29.288Z,99.08
2019-01-05T06:34:04.276Z,97.47
2019-01-05T06:35:04.845Z,97.08
2019-01-05T06:36:05.455Z,97.66
2019-01-05T06:37:06.869Z,96.89
2019-01-05T06:38:07.433Z,97.27
2019-01-05T06:39:07.999Z,97.18
2019-01-05T06:40:08.565Z,97.66
2019-01-05T06:41:09.129Z,96.89
2019-01-05T06:42:09.697Z,96.32
2019-01-05T06:43:10.415Z,96.22
2019-01-05T06:44:11.073Z,97.27
2019-01-05T06:45:11.636Z,96.61
2019-01-05T06:46:12.203Z,97.08
2019-01-05T06:47:12.770Z,98.23
2019-01-05T06:48:13.334Z,96.32
2019-01-05T06:49:13.952Z,97.47
2019-01-05T06:50:14.517Z,97.18
2019-01-05T06:51:15.086Z,97.47
2019-01-05T06:52:15.651Z,97.66
2019-01-05T06:53:16.267Z,96.61
2019-01-05T06:54:16.834Z,97.08
2019-01-05T06:55:17.401Z,97.37
2019-01-05T06:56:17.966Z,97.08
2019-01-05T06:57:18.533Z,97.03
2019-01-05T06:58:19.101Z,97.47
2019-01-05T06:59:19.666Z,97.27
2019-01-05T07:00:20.234Z,96.22
2019-01-05T07:01:20.800Z,96.51
2019-01-05T07:02:21.367Z,97.18
2019-01-05T07:03:21.933Z,97.27
2019-01-05T07:04:22.500Z,97.13
2019-01-05T07:05:23.065Z,96.08
2019-01-05T07:06:23.630Z,96.46
2019-01-05T07:07:24.198Z,95.98
2019-01-05T07:08:24.761Z,96.08
2019-01-05T07:09:25.335Z,96.37
2019-01-05T07:10:25.894Z,97.22
2019-01-05T07:11:26.510Z,96.84
2019-01-05T07:12:27.074Z,95.51
2019-01-05T07:13:27.640Z,96.08
2019-01-05T07:14:28.207Z,96.66
2019-01-05T07:15:28.772Z,96.08
2019-01-05T07:16:29.388Z,95.12
2019-01-05T07:17:29.954Z,95.51
2019-01-05T07:18:30.520Z,96.46
2019-01-05T07:19:31.084Z,96.37
2019-01-05T07:20:31.652Z,96.46
2019-01-05T07:21:32.217Z,96.08
2019-01-05T07:22:32.782Z,95.61
2019-01-05T07:23:33.349Z,96.37
2019-01-05T07:24:33.913Z,96.17
2019-01-05T07:25:34.479Z,95.41
2019-01-05T07:26:35.047Z,96.17
2019-01-05T07:27:35.662Z,97.32
2019-01-05T07:28:36.228Z,96.37
2019-01-05T07:29:36.796Z,95.22
2019-01-05T07:30:37.362Z,97.13
2019-01-05T07:31:37.929Z,95.79
2019-01-05T07:32:38.545Z,95.51
2019-01-05T07:33:39.106Z,96.17
2019-01-05T07:34:39.671Z,96.37
2019-01-05T07:35:40.288Z,96.27
2019-01-05T07:36:40.854Z,96.46
2019-01-05T07:37:41.419Z,95.51
2019-01-05T07:38:41.983Z,95.32
2019-01-05T07:39:42.548Z,96.17
2019-01-05T07:40:43.115Z,95.89
2019-01-05T07:41:43.680Z,95.79
2019-01-05T07:42:44.245Z,97.61
2019-01-05T07:43:44.812Z,96.46
2019-01-05T07:44:45.528Z,96.08
2019-01-05T07:45:46.095Z,96.84
2019-01-05T07:46:46.660Z,94.56
2019-01-05T07:47:47.225Z,95.12
2019-01-05T07:48:47.792Z,95.61
2019-01-05T07:49:48.357Z,94.56
2019-01-05T07:50:48.924Z,96.08
2019-01-05T07:51:49.538Z,95.12
2019-01-05T07:52:50.104Z,95.51
2019-01-05T07:53:50.670Z,95.12
2019-01-05T07:54:51.235Z,95.61
2019-01-05T07:55:51.802Z,95.41
2019-01-05T07:56:52.367Z,95.22
2019-01-05T07:57:52.934Z,96.46
2019-01-05T07:58:53.500Z,95.61
2019-01-05T07:59:54.067Z,96.37
2019-01-05T08:00:54.676Z,95.51
2019-01-05T08:01:55.241Z,96.08
2019-01-05T08:02:55.805Z,95.61
2019-01-05T08:03:56.371Z,95.89
2019-01-05T08:04:56.938Z,95.61
2019-01-05T08:05:57.504Z,94.56
2019-01-05T08:06:58.072Z,95.12
2019-01-05T08:07:58.637Z,94.84
2019-01-05T08:08:59.252Z,96.37
2019-01-05T08:09:59.816Z,94.65
2019-01-05T08:11:00.430Z,95.32
2019-01-05T08:12:00.997Z,95.51
2019-01-05T08:13:01.563Z,94.74
2019-01-05T08:14:02.127Z,95.22
2019-01-05T08:15:02.698Z,95.22
2019-01-05T08:16:03.303Z,95.61
2019-01-05T08:17:03.867Z,95.51
2019-01-05T08:18:04.434Z,96.37
2019-01-05T08:19:05.050Z,95.51
2019-01-05T08:20:05.672Z,94.65
2019-01-05T08:21:06.234Z,94.07
2019-01-05T08:22:06.841Z,94.36
2019-01-05T08:23:07.407Z,95.32
2019-01-05T08:24:07.974Z,96.84
2019-01-05T08:25:08.538Z,98.08
2019-01-05T08:26:09.106Z,96.08
2019-01-05T08:27:09.672Z,94.93
2019-01-05T08:28:10.237Z,94.27
2019-01-05T08:29:10.804Z,93.88
2019-01-05T08:30:11.370Z,95.79
2019-01-05T08:31:11.935Z,97.99
2019-01-05T08:32:12.504Z,96.37
2019-01-05T08:33:13.068Z,94.27
2019-01-05T08:34:13.634Z,95.12
2019-01-05T08:35:14.250Z,99.90
2019-01-05T08:36:14.816Z,96.08
2019-01-05T08:37:15.383Z,94.65
2019-01-05T08:38:15.999Z,94.65
2019-01-05T08:39:16.563Z,96.17
2019-01-05T08:40:17.130Z,96.08
2019-01-05T08:41:17.697Z,96.08
2019-01-05T08:42:18.261Z,94.56
2019-01-05T08:43:18.828Z,95.12
2019-01-05T08:44:19.393Z,96.27
2019-01-05T08:45:19.959Z,96.08
2019-01-05T08:46:20.526Z,96.56
2019-01-05T08:47:21.093Z,94.56
2019-01-05T08:48:21.657Z,95.70
2019-01-05T08:49:22.223Z,98.66
2019-01-05T08:50:22.789Z,98.66
2019-01-05T08:51:23.354Z,95.98
2019-01-05T08:52:23.921Z,96.08
2019-01-05T08:53:24.537Z,95.89
2019-01-05T08:54:25.105Z,95.70
2019-01-05T08:55:25.705Z,94.56
2019-01-05T08:56:26.235Z,94.17
2019-01-05T08:57:26.802Z,94.56
2019-01-05T08:58:27.416Z,94.36
2019-01-05T08:59:28.030Z,94.93
2019-01-05T09:00:29.093Z,95.51
2019-01-05T09:01:29.676Z,95.41
2019-01-05T09:02:30.331Z,96.37
2019-01-05T09:03:30.868Z,96.08
2019-01-05T09:04:31.434Z,95.32
2019-01-05T09:05:32.003Z,96.37
2019-01-05T09:06:32.610Z,95.70
2019-01-05T09:07:33.175Z,95.12
2019-01-05T09:08:33.741Z,97.22
2019-01-05T09:09:34.305Z,95.12
2019-01-05T09:10:34.874Z,96.46
2019-01-05T09:11:35.440Z,96.08
2019-01-05T09:12:36.004Z,95.32
2019-01-05T09:13:36.571Z,94.93
2019-01-05T09:14:37.186Z,95.70
2019-01-05T09:15:37.754Z,95.12
2019-01-05T09:16:38.318Z,95.41
2019-01-05T09:17:38.884Z,95.32
2019-01-05T09:18:39.506Z,96.08
2019-01-05T09:19:40.066Z,96.08
2019-01-05T09:20:40.632Z,97.61
2019-01-05T09:21:41.199Z,96.17
2019-01-05T09:22:41.764Z,97.75
2019-01-05T09:23:42.329Z,97.75
2019-01-05T09:24:42.896Z,96.22
2019-01-05T09:25:43.462Z,96.42
2019-01-05T09:26:44.028Z,95.94
2019-01-05T09:27:44.595Z,96.84
2019-01-05T09:28:45.166Z,97.47
2019-01-05T09:29:45.726Z,97.56
2019-01-05T09:30:46.292Z,99.37
2019-01-05T09:31:46.858Z,99.99
2019-01-05T09:32:47.424Z,99.08
2019-01-05T09:33:47.993Z,99.37
2019-01-05T09:34:48.556Z,99.99
2019-01-05T09:35:49.121Z,98.61
2019-01-05T09:36:49.688Z,98.99
2019-01-05T09:37:50.303Z,99.99
2019-01-05T09:38:50.871Z,99.28
2019-01-05T09:39:51.434Z,98.52
2019-01-05T09:40:52.000Z,97.85
2019-01-05T09:41:52.567Z,99.28
2019-01-05T09:42:53.131Z,99.66
2019-01-05T09:43:53.696Z,99.99
2019-01-05T09:44:54.263Z,99.85
2019-01-05T09:45:54.826Z,98.71
2019-01-05T09:46:55.394Z,99.99
2019-01-05T09:47:55.958Z,99.99
2019-01-05T09:48:56.523Z,99.99
2019-01-05T09:49:57.090Z,98.42
2019-01-05T09:50:57.656Z,99.47
2019-01-05T09:51:58.272Z,99.99
2019-01-05T09:52:58.838Z,99.99
2019-01-05T09:53:59.405Z,98.03
2019-01-05T09:54:59.970Z,97.94
2019-01-05T09:56:00.588Z,98.90
2019-01-05T09:57:01.152Z,97.27
2019-01-05T09:58:01.718Z,97.08
2019-01-05T09:59:02.284Z,98.42
2019-01-05T10:00:02.895Z,99.57
2019-01-05T10:01:03.459Z,99.99
2019-01-05T10:02:04.025Z,99.99
2019-01-05T10:03:04.592Z,99.99
2019-01-05T10:04:05.157Z,99.99
2019-01-05T10:05:05.771Z,97.85
2019-01-05T10:06:06.336Z,98.80
2019-01-05T10:07:06.900Z,98.61
2019-01-05T10:08:07.467Z,97.56
2019-01-05T10:09:08.032Z,95.94
2019-01-05T10:10:08.597Z,96.13
2019-01-05T10:11:09.165Z,96.22
2019-01-05T10:12:09.731Z,96.32
2019-01-05T10:13:10.295Z,97.18
2019-01-05T10:14:10.859Z,96.42
2019-01-05T10:15:11.426Z,97.47
2019-01-05T10:16:11.991Z,97.37
2019-01-05T10:17:12.556Z,96.80
2019-01-05T10:18:13.123Z,97.85
2019-01-05T10:19:13.742Z,96.61
2019-01-05T10:20:14.307Z,96.42
2019-01-05T10:21:14.872Z,97.85
2019-01-05T10:22:15.588Z,95.94
2019-01-05T10:23:16.154Z,96.32
2019-01-05T10:24:16.718Z,96.03
2019-01-05T10:25:17.287Z,97.27
2019-01-05T10:26:17.854Z,97.08
2019-01-05T10:27:18.419Z,98.90
2019-01-05T10:28:18.985Z,98.23
2019-01-05T10:29:19.553Z,98.23
2019-01-05T10:30:20.158Z,99.18
2019-01-05T10:31:20.726Z,98.80
2019-01-05T10:32:21.293Z,97.18
2019-01-05T10:33:21.858Z,96.42
2019-01-05T10:34:22.425Z,96.22
2019-01-05T10:35:22.990Z,96.22
2019-01-05T10:36:23.555Z,96.80
2019-01-05T10:37:24.171Z,97.08
2019-01-05T10:38:24.787Z,97.85
2019-01-05T10:39:25.368Z,97.47
2019-01-05T10:40:25.962Z,97.85
2019-01-05T10:41:26.527Z,97.85
2019-01-05T10:42:27.096Z,98.71
2019-01-05T10:43:27.660Z,98.94
2019-01-05T10:44:28.226Z,97.75
2019-01-05T10:45:28.794Z,96.13
2019-01-05T10:46:29.409Z,96.66
2019-01-05T10:47:29.976Z,95.27
2019-01-05T10:48:30.540Z,96.51
2019-01-05T10:49:31.107Z,97.08
2019-01-05T10:50:31.683Z,97.27
2019-01-05T10:51:32.284Z,99.14
2019-01-05T10:52:32.900Z,99.04
2019-01-05T10:53:33.467Z,98.66
2019-01-05T10:54:34.081Z,99.62
2019-01-05T10:55:34.736Z,99.71
2019-01-05T10:56:35.301Z,99.62
2019-01-05T10:57:35.870Z,99.99
2019-01-05T10:58:36.434Z,99.99
2019-01-05T10:59:36.999Z,99.99
2019-01-05T11:00:37.565Z,98.57
2019-01-05T11:01:38.131Z,97.23
2019-01-05T11:02:38.699Z,96.66
2019-01-05T11:03:39.261Z,98.57
2019-01-05T11:04:39.829Z,99.99
2019-01-05T11:05:40.445Z,99.80
2019-01-05T11:06:41.010Z,99.99
2019-01-05T11:07:41.578Z,98.37
2019-01-05T11:08:42.142Z,97.80
2019-01-05T11:09:42.708Z,98.37
2019-01-05T11:10:43.275Z,99.14
2019-01-05T11:11:43.841Z,98.57
2019-01-05T11:12:44.454Z,99.99
2019-01-05T11:13:45.020Z,98.75
2019-01-05T11:14:45.637Z,98.85
2019-01-05T11:15:46.206Z,99.80
2019-01-05T11:16:46.770Z,99.52
2019-01-05T11:17:47.336Z,98.28
2019-01-05T11:18:47.901Z,98.28
2019-01-05T11:19:48.468Z,98.94
2019-01-05T11:20:49.038Z,99.52
2019-01-05T11:21:49.599Z,98.08
2019-01-05T11:22:50.219Z,99.43
2019-01-05T11:23:50.780Z,99.80
2019-01-05T11:24:51.348Z,99.99
2019-01-05T11:25:51.920Z,99.99
2019-01-05T11:26:52.479Z,99.99
2019-01-05T11:27:53.045Z,99.99
2019-01-05T11:28:53.612Z,98.94
2019-01-05T11:29:54.176Z,99.23
2019-01-05T11:30:54.794Z,99.23
2019-01-05T11:31:55.368Z,99.71
2019-01-05T11:32:55.928Z,99.23
2019-01-05T11:33:56.495Z,99.99
2019-01-05T11:34:57.067Z,99.85
2019-01-05T11:35:57.630Z,99.99
2019-01-05T11:36:58.242Z,98.99
2019-01-05T11:37:58.815Z,91.40
2019-01-05T11:38:59.427Z,99.14
2019-01-05T11:40:00.246Z,99.66
2019-01-05T11:41:00.762Z,99.99
2019-01-05T11:42:01.335Z,99.99
2019-01-05T11:43:01.904Z,99.95
2019-01-05T11:44:02.473Z,99.28
2019-01-05T11:45:03.047Z,98.99
2019-01-05T11:46:03.623Z,99.28
2019-01-05T11:47:04.236Z,98.99
2019-01-05T11:48:04.807Z,99.38
2019-01-05T11:49:05.380Z,99.09
2019-01-05T11:50:07.367Z,98.71
2019-01-05T11:51:07.520Z,98.99
2019-01-05T11:52:08.079Z,99.28
2019-01-05T11:53:08.665Z,99.85
2019-01-05T11:54:09.221Z,99.48
2019-01-05T11:55:09.794Z,99.99
2019-01-05T11:56:10.416Z,99.09
2019-01-05T11:57:11.006Z,98.80
2019-01-05T11:58:11.616Z,98.99
2019-01-05T11:59:12.176Z,98.23
2019-01-05T12:00:12.748Z,98.80
2019-01-05T12:01:13.320Z,99.19
2019-01-05T12:02:19.486Z,99.28
2019-01-05T12:03:15.552Z,99.76
2019-01-05T12:04:16.272Z,99.09
2019-01-05T12:05:16.854Z,98.80
2019-01-05T12:06:17.473Z,99.28
2019-01-05T12:07:18.036Z,99.66
2019-01-05T12:08:18.603Z,99.28
2019-01-05T12:09:19.178Z,99.28
2019-01-05T12:10:19.745Z,99.28
2019-01-05T12:11:20.316Z,99.99
2019-01-05T12:12:20.885Z,99.99
2019-01-05T12:13:21.457Z,99.28
2019-01-05T12:14:22.028Z,99.28
2019-01-05T12:15:22.650Z,99.99
2019-01-05T12:16:23.220Z,99.99
2019-01-05T12:17:23.793Z,99.99
2019-01-05T12:18:24.362Z,99.99
2019-01-05T12:19:24.937Z,99.99
2019-01-05T12:20:25.509Z,99.99
2019-01-05T12:21:26.126Z,99.99
2019-01-05T12:22:26.697Z,99.09
2019-01-05T12:23:27.319Z,97.94
2019-01-05T12:24:27.940Z,97.66
2019-01-05T12:25:28.506Z,95.70
2019-01-05T12:26:29.077Z,95.22
2019-01-05T12:27:29.648Z,95.36
2019-01-05T12:28:30.219Z,94.22
2019-01-05T12:29:30.788Z,93.26
2019-01-05T12:30:36.464Z,93.93
2019-01-05T12:31:37.338Z,93.74
2019-01-05T12:32:37.908Z,94.02
2019-01-05T12:33:38.482Z,94.02
2019-01-05T12:34:39.103Z,93.84
2019-01-05T12:35:39.675Z,94.22
2019-01-05T12:36:40.245Z,93.84
2019-01-05T12:37:40.818Z,94.12
2019-01-05T12:38:41.391Z,94.31
2019-01-05T12:39:42.012Z,94.31
2019-01-05T12:40:42.582Z,94.70
2019-01-05T12:41:43.157Z,95.46
2019-01-05T12:42:44.827Z,94.31
2019-01-05T12:43:45.291Z,94.22
2019-01-05T12:44:45.864Z,95.36
2019-01-05T12:45:46.437Z,95.51
2019-01-05T12:46:47.422Z,95.94
2019-01-05T12:47:47.981Z,96.22
2019-01-05T12:48:48.551Z,96.51
2019-01-05T12:49:49.126Z,96.84
2019-01-05T12:50:49.698Z,96.51
2019-01-05T12:51:50.312Z,96.27
2019-01-05T12:52:50.934Z,96.75
2019-01-05T12:53:51.765Z,96.37
2019-01-05T12:54:52.368Z,96.66
2019-01-05T12:55:52.936Z,96.75
2019-01-05T12:56:53.507Z,97.23
2019-01-05T12:57:54.076Z,97.13
2019-01-05T12:58:54.648Z,97.42
2019-01-05T12:59:55.223Z,96.47
2019-01-05T13:00:55.795Z,97.42
2019-01-05T13:01:56.385Z,97.52
2019-01-05T13:02:56.972Z,97.42
2019-01-05T13:03:57.546Z,97.42
2019-01-05T13:04:58.119Z,96.94
2019-01-05T13:05:58.693Z,97.90
2019-01-05T13:06:59.264Z,97.71
2019-01-05T13:07:59.884Z,98.57